sensor_id;sensor_type;location;lat;lon;timestamp;P1;durP1;ratioP1;P2;durP2;ratioP2
6197;SDS011;3132;42.622;23.328;2023-04-01T00:00:23;11.63;;;10.53;;
6197;SDS011;3132;42.622;23.328;2023-04-01T00:02:48;11.50;;;10.30;;
6197;SDS011;3132;42.622;23.328;2023-04-01T00:05:14;11.03;;;9.93;;
6197;SDS011;3132;42.622;23.328;2023-04-01T00:07:41;11.27;;;10.33;;
6197;SDS011;3132;42.622;23.328;2023-04-01T00:10:07;10.30;;;9.77;;
6197;SDS011;3132;42.622;23.328;2023-04-01T00:12:35;12.87;;;9.23;;
6197;SDS011;3132;42.622;23.328;2023-04-01T00:15:01;11.97;;;9.87;;
6197;SDS011;3132;42.622;23.328;2023-04-01T00:17:27;10.10;;;9.33;;
6197;SDS011;3132;42.622;23.328;2023-04-01T00:19:56;10.47;;;9.67;;
6197;SDS011;3132;42.622;23.328;2023-04-01T00:22:22;14.10;;;11.80;;
6197;SDS011;3132;42.622;23.328;2023-04-01T00:24:48;13.43;;;11.60;;
6197;SDS011;3132;42.622;23.328;2023-04-01T00:27:14;12.73;;;11.50;;
6197;SDS011;3132;42.622;23.328;2023-04-01T00:29:43;13.73;;;12.33;;
6197;SDS011;3132;42.622;23.328;2023-04-01T00:32:13;14.47;;;12.53;;
6197;SDS011;3132;42.622;23.328;2023-04-01T00:34:39;13.43;;;11.83;;
6197;SDS011;3132;42.622;23.328;2023-04-01T00:37:05;18.83;;;12.40;;
6197;SDS011;3132;42.622;23.328;2023-04-01T00:39:31;13.87;;;12.37;;
6197;SDS011;3132;42.622;23.328;2023-04-01T00:41:58;13.50;;;11.77;;
6197;SDS011;3132;42.622;23.328;2023-04-01T00:44:31;16.50;;;12.03;;
6197;SDS011;3132;42.622;23.328;2023-04-01T00:46:58;17.77;;;11.80;;
6197;SDS011;3132;42.622;23.328;2023-04-01T00:49:26;12.27;;;11.47;;
6197;SDS011;3132;42.622;23.328;2023-04-01T00:51:56;13.07;;;11.97;;
6197;SDS011;3132;42.622;23.328;2023-04-01T00:54:24;12.63;;;11.43;;
6197;SDS011;3132;42.622;23.328;2023-04-01T00:56:53;11.30;;;10.33;;
6197;SDS011;3132;42.622;23.328;2023-04-01T00:59:23;13.23;;;12.13;;
6197;SDS011;3132;42.622;23.328;2023-04-01T01:01:52;12.13;;;11.10;;
6197;SDS011;3132;42.622;23.328;2023-04-01T01:04:24;12.73;;;11.67;;
6197;SDS011;3132;42.622;23.328;2023-04-01T01:07:10;12.20;;;10.70;;
6197;SDS011;3132;42.622;23.328;2023-04-01T01:12:47;11.90;;;10.93;;
6197;SDS011;3132;42.622;23.328;2023-04-01T01:18:05;13.87;;;10.57;;
6197;SDS011;3132;42.622;23.328;2023-04-01T01:20:57;12.37;;;11.13;;
6197;SDS011;3132;42.622;23.328;2023-04-01T01:28:59;12.37;;;11.40;;
6197;SDS011;3132;42.622;23.328;2023-04-01T01:37:19;13.10;;;11.63;;
6197;SDS011;3132;42.622;23.328;2023-04-01T01:39:50;14.13;;;10.37;;
6197;SDS011;3132;42.622;23.328;2023-04-01T01:42:19;11.90;;;10.70;;
6197;SDS011;3132;42.622;23.328;2023-04-01T01:44:48;10.63;;;9.60;;
6197;SDS011;3132;42.622;23.328;2023-04-01T01:47:15;12.70;;;11.50;;
6197;SDS011;3132;42.622;23.328;2023-04-01T01:49:42;11.90;;;10.67;;
6197;SDS011;3132;42.622;23.328;2023-04-01T01:52:09;11.50;;;9.97;;
6197;SDS011;3132;42.622;23.328;2023-04-01T01:54:35;13.40;;;10.07;;
6197;SDS011;3132;42.622;23.328;2023-04-01T01:57:07;11.63;;;10.33;;
6197;SDS011;3132;42.622;23.328;2023-04-01T01:59:35;11.17;;;10.40;;
6197;SDS011;3132;42.622;23.328;2023-04-01T02:02:04;11.10;;;10.10;;
6197;SDS011;3132;42.622;23.328;2023-04-01T02:04:36;10.93;;;9.93;;
6197;SDS011;3132;42.622;23.328;2023-04-01T02:07:04;11.93;;;10.40;;
6197;SDS011;3132;42.622;23.328;2023-04-01T02:09:36;9.50;;;8.80;;
6197;SDS011;3132;42.622;23.328;2023-04-01T02:12:04;9.87;;;9.27;;
6197;SDS011;3132;42.622;23.328;2023-04-01T02:17:27;10.70;;;9.83;;
6197;SDS011;3132;42.622;23.328;2023-04-01T02:20:02;11.33;;;10.53;;
6197;SDS011;3132;42.622;23.328;2023-04-01T02:22:33;11.43;;;10.33;;
6197;SDS011;3132;42.622;23.328;2023-04-01T02:25:04;11.07;;;10.27;;
6197;SDS011;3132;42.622;23.328;2023-04-01T02:27:36;11.30;;;10.40;;
6197;SDS011;3132;42.622;23.328;2023-04-01T02:30:02;10.83;;;9.87;;
6197;SDS011;3132;42.622;23.328;2023-04-01T02:32:28;10.23;;;9.53;;
6197;SDS011;3132;42.622;23.328;2023-04-01T02:34:56;10.50;;;9.53;;
6197;SDS011;3132;42.622;23.328;2023-04-01T02:37:21;11.27;;;10.07;;
6197;SDS011;3132;42.622;23.328;2023-04-01T02:39:48;11.90;;;10.33;;
6197;SDS011;3132;42.622;23.328;2023-04-01T02:42:13;11.27;;;10.37;;
6197;SDS011;3132;42.622;23.328;2023-04-01T02:44:39;13.77;;;9.73;;
6197;SDS011;3132;42.622;23.328;2023-04-01T02:47:05;10.03;;;9.07;;
6197;SDS011;3132;42.622;23.328;2023-04-01T02:49:30;9.33;;;8.67;;
6197;SDS011;3132;42.622;23.328;2023-04-01T02:51:55;11.33;;;10.37;;
6197;SDS011;3132;42.622;23.328;2023-04-01T02:54:21;10.57;;;9.80;;
6197;SDS011;3132;42.622;23.328;2023-04-01T02:56:46;10.43;;;9.60;;
6197;SDS011;3132;42.622;23.328;2023-04-01T02:59:12;11.37;;;10.37;;
6197;SDS011;3132;42.622;23.328;2023-04-01T03:01:37;10.87;;;10.07;;
6197;SDS011;3132;42.622;23.328;2023-04-01T03:04:03;13.33;;;10.70;;
6197;SDS011;3132;42.622;23.328;2023-04-01T03:06:28;12.27;;;11.07;;
6197;SDS011;3132;42.622;23.328;2023-04-01T03:08:54;12.40;;;11.13;;
6197;SDS011;3132;42.622;23.328;2023-04-01T03:11:19;10.93;;;9.90;;
6197;SDS011;3132;42.622;23.328;2023-04-01T03:13:46;9.67;;;9.07;;
6197;SDS011;3132;42.622;23.328;2023-04-01T03:16:11;14.20;;;9.97;;
6197;SDS011;3132;42.622;23.328;2023-04-01T03:18:37;9.77;;;8.93;;
6197;SDS011;3132;42.622;23.328;2023-04-01T03:21:15;9.77;;;9.13;;
6197;SDS011;3132;42.622;23.328;2023-04-01T03:23:41;10.30;;;9.60;;
6197;SDS011;3132;42.622;23.328;2023-04-01T03:26:07;10.27;;;9.50;;
6197;SDS011;3132;42.622;23.328;2023-04-01T03:28:33;10.47;;;9.37;;
6197;SDS011;3132;42.622;23.328;2023-04-01T03:30:58;10.60;;;9.83;;
6197;SDS011;3132;42.622;23.328;2023-04-01T03:33:23;8.60;;;8.10;;
6197;SDS011;3132;42.622;23.328;2023-04-01T03:35:49;9.40;;;8.80;;
6197;SDS011;3132;42.622;23.328;2023-04-01T03:38:17;10.93;;;9.90;;
6197;SDS011;3132;42.622;23.328;2023-04-01T03:40:42;10.13;;;9.43;;
6197;SDS011;3132;42.622;23.328;2023-04-01T03:43:08;9.37;;;8.43;;
6197;SDS011;3132;42.622;23.328;2023-04-01T03:45:35;9.47;;;8.83;;
6197;SDS011;3132;42.622;23.328;2023-04-01T03:48:00;10.27;;;9.07;;
6197;SDS011;3132;42.622;23.328;2023-04-01T03:50:26;9.40;;;8.87;;
6197;SDS011;3132;42.622;23.328;2023-04-01T03:52:51;10.77;;;9.83;;
6197;SDS011;3132;42.622;23.328;2023-04-01T03:55:16;8.87;;;8.37;;
6197;SDS011;3132;42.622;23.328;2023-04-01T03:57:43;9.13;;;8.40;;
6197;SDS011;3132;42.622;23.328;2023-04-01T04:00:08;10.10;;;9.47;;
6197;SDS011;3132;42.622;23.328;2023-04-01T04:02:34;9.80;;;9.20;;
6197;SDS011;3132;42.622;23.328;2023-04-01T04:05:00;10.27;;;9.47;;
6197;SDS011;3132;42.622;23.328;2023-04-01T04:07:26;8.50;;;8.07;;
6197;SDS011;3132;42.622;23.328;2023-04-01T04:09:51;11.03;;;10.13;;
6197;SDS011;3132;42.622;23.328;2023-04-01T04:12:16;9.47;;;8.70;;
6197;SDS011;3132;42.622;23.328;2023-04-01T04:14:42;9.63;;;8.57;;
6197;SDS011;3132;42.622;23.328;2023-04-01T04:17:09;9.83;;;9.17;;
6197;SDS011;3132;42.622;23.328;2023-04-01T04:19:40;10.00;;;9.33;;
6197;SDS011;3132;42.622;23.328;2023-04-01T04:22:06;10.17;;;9.47;;
6197;SDS011;3132;42.622;23.328;2023-04-01T04:24:33;10.40;;;9.40;;
6197;SDS011;3132;42.622;23.328;2023-04-01T04:27:02;9.50;;;8.87;;
6197;SDS011;3132;42.622;23.328;2023-04-01T04:29:28;9.53;;;8.83;;
6197;SDS011;3132;42.622;23.328;2023-04-01T04:31:54;10.07;;;9.43;;
6197;SDS011;3132;42.622;23.328;2023-04-01T04:34:20;10.20;;;9.57;;
6197;SDS011;3132;42.622;23.328;2023-04-01T04:36:47;10.90;;;10.07;;
6197;SDS011;3132;42.622;23.328;2023-04-01T04:39:13;11.20;;;10.30;;
6197;SDS011;3132;42.622;23.328;2023-04-01T04:41:39;10.87;;;9.07;;
6197;SDS011;3132;42.622;23.328;2023-04-01T04:44:05;10.00;;;9.17;;
6197;SDS011;3132;42.622;23.328;2023-04-01T04:46:30;12.23;;;11.03;;
6197;SDS011;3132;42.622;23.328;2023-04-01T04:48:56;10.17;;;9.43;;
6197;SDS011;3132;42.622;23.328;2023-04-01T04:51:22;11.23;;;10.33;;
6197;SDS011;3132;42.622;23.328;2023-04-01T04:53:47;12.10;;;11.07;;
6197;SDS011;3132;42.622;23.328;2023-04-01T04:56:17;12.37;;;10.83;;
6197;SDS011;3132;42.622;23.328;2023-04-01T04:58:44;11.63;;;10.73;;
6197;SDS011;3132;42.622;23.328;2023-04-01T05:01:10;11.93;;;10.93;;
6197;SDS011;3132;42.622;23.328;2023-04-01T05:03:38;11.03;;;10.17;;
6197;SDS011;3132;42.622;23.328;2023-04-01T05:06:03;10.63;;;9.83;;
6197;SDS011;3132;42.622;23.328;2023-04-01T05:08:30;11.73;;;10.83;;
6197;SDS011;3132;42.622;23.328;2023-04-01T05:10:56;12.27;;;11.03;;
6197;SDS011;3132;42.622;23.328;2023-04-01T05:13:21;11.90;;;11.03;;
6197;SDS011;3132;42.622;23.328;2023-04-01T05:15:46;13.23;;;10.70;;
6197;SDS011;3132;42.622;23.328;2023-04-01T05:18:12;11.33;;;10.53;;
6197;SDS011;3132;42.622;23.328;2023-04-01T05:20:37;11.50;;;10.43;;
6197;SDS011;3132;42.622;23.328;2023-04-01T05:23:03;12.10;;;11.10;;
6197;SDS011;3132;42.622;23.328;2023-04-01T05:25:28;13.00;;;11.93;;
6197;SDS011;3132;42.622;23.328;2023-04-01T05:27:53;11.00;;;9.60;;
6197;SDS011;3132;42.622;23.328;2023-04-01T05:30:19;11.50;;;10.60;;
6197;SDS011;3132;42.622;23.328;2023-04-01T05:32:45;10.90;;;10.03;;
6197;SDS011;3132;42.622;23.328;2023-04-01T05:35:10;11.37;;;10.30;;
6197;SDS011;3132;42.622;23.328;2023-04-01T05:37:36;12.47;;;11.53;;
6197;SDS011;3132;42.622;23.328;2023-04-01T05:40:03;13.43;;;12.27;;
6197;SDS011;3132;42.622;23.328;2023-04-01T05:42:29;12.17;;;11.27;;
6197;SDS011;3132;42.622;23.328;2023-04-01T05:44:54;12.43;;;11.27;;
6197;SDS011;3132;42.622;23.328;2023-04-01T05:47:20;13.07;;;12.10;;
6197;SDS011;3132;42.622;23.328;2023-04-01T05:49:46;12.07;;;10.97;;
6197;SDS011;3132;42.622;23.328;2023-04-01T05:52:12;12.83;;;11.70;;
6197;SDS011;3132;42.622;23.328;2023-04-01T05:54:37;12.23;;;11.10;;
6197;SDS011;3132;42.622;23.328;2023-04-01T05:57:02;15.10;;;13.80;;
6197;SDS011;3132;42.622;23.328;2023-04-01T05:59:28;14.10;;;12.63;;
6197;SDS011;3132;42.622;23.328;2023-04-01T06:01:53;14.87;;;11.90;;
6197;SDS011;3132;42.622;23.328;2023-04-01T06:04:19;17.93;;;13.43;;
6197;SDS011;3132;42.622;23.328;2023-04-01T06:06:44;13.77;;;12.37;;
6197;SDS011;3132;42.622;23.328;2023-04-01T06:11:51;13.03;;;11.80;;
6197;SDS011;3132;42.622;23.328;2023-04-01T06:14:37;14.93;;;13.23;;
6197;SDS011;3132;42.622;23.328;2023-04-01T06:22:38;17.87;;;12.27;;
6197;SDS011;3132;42.622;23.328;2023-04-01T06:25:38;13.40;;;10.97;;
6197;SDS011;3132;42.622;23.328;2023-04-01T06:53:13;16.53;;;10.80;;
6197;SDS011;3132;42.622;23.328;2023-04-01T06:56:01;13.67;;;12.27;;
6197;SDS011;3132;42.622;23.328;2023-04-01T06:59:15;15.00;;;10.87;;
6197;SDS011;3132;42.622;23.328;2023-04-01T07:01:25;10.97;;;9.83;;
6197;SDS011;3132;42.622;23.328;2023-04-01T07:04:05;11.13;;;10.07;;
6197;SDS011;3132;42.622;23.328;2023-04-01T07:06:38;11.13;;;10.43;;
6197;SDS011;3132;42.622;23.328;2023-04-01T07:09:10;10.87;;;10.27;;
6197;SDS011;3132;42.622;23.328;2023-04-01T07:11:39;10.53;;;9.57;;
6197;SDS011;3132;42.622;23.328;2023-04-01T07:14:12;10.30;;;9.63;;
6197;SDS011;3132;42.622;23.328;2023-04-01T07:16:56;10.33;;;9.63;;
6197;SDS011;3132;42.622;23.328;2023-04-01T07:22:27;15.03;;;13.50;;
6197;SDS011;3132;42.622;23.328;2023-04-01T07:24:59;16.00;;;14.33;;
6197;SDS011;3132;42.622;23.328;2023-04-01T07:27:28;13.40;;;12.10;;
6197;SDS011;3132;42.622;23.328;2023-04-01T07:29:55;13.23;;;12.13;;
6197;SDS011;3132;42.622;23.328;2023-04-01T07:32:23;13.10;;;11.80;;
6197;SDS011;3132;42.622;23.328;2023-04-01T07:51:43;10.80;;;9.93;;
6197;SDS011;3132;42.622;23.328;2023-04-01T08:02:20;11.47;;;10.43;;
6197;SDS011;3132;42.622;23.328;2023-04-01T08:07:47;15.03;;;8.07;;
6197;SDS011;3132;42.622;23.328;2023-04-01T08:10:43;10.57;;;9.60;;
6197;SDS011;3132;42.622;23.328;2023-04-01T08:21:32;8.83;;;8.13;;
6197;SDS011;3132;42.622;23.328;2023-04-01T08:24:46;9.70;;;9.00;;
6197;SDS011;3132;42.622;23.328;2023-04-01T08:27:10;12.20;;;8.93;;
6197;SDS011;3132;42.622;23.328;2023-04-01T08:29:42;12.40;;;8.27;;
6197;SDS011;3132;42.622;23.328;2023-04-01T08:32:16;8.87;;;7.77;;
6197;SDS011;3132;42.622;23.328;2023-04-01T08:34:50;9.67;;;8.53;;
6197;SDS011;3132;42.622;23.328;2023-04-01T08:37:24;8.97;;;8.07;;
6197;SDS011;3132;42.622;23.328;2023-04-01T08:39:56;8.83;;;7.97;;
6197;SDS011;3132;42.622;23.328;2023-04-01T08:45:23;10.00;;;8.50;;
6197;SDS011;3132;42.622;23.328;2023-04-01T08:48:16;8.67;;;8.17;;
6197;SDS011;3132;42.622;23.328;2023-04-01T08:56:14;8.83;;;7.97;;
6197;SDS011;3132;42.622;23.328;2023-04-01T08:58:55;8.67;;;8.07;;
6197;SDS011;3132;42.622;23.328;2023-04-01T09:07:35;9.63;;;8.73;;
6197;SDS011;3132;42.622;23.328;2023-04-01T09:13:14;8.03;;;7.50;;
6197;SDS011;3132;42.622;23.328;2023-04-01T09:18:45;8.43;;;7.93;;
6197;SDS011;3132;42.622;23.328;2023-04-01T09:37:52;15.57;;;9.63;;
6197;SDS011;3132;42.622;23.328;2023-04-01T09:40:47;10.40;;;9.60;;
6197;SDS011;3132;42.622;23.328;2023-04-01T09:52:44;9.33;;;8.47;;
6197;SDS011;3132;42.622;23.328;2023-04-01T09:55:35;13.63;;;9.60;;
6197;SDS011;3132;42.622;23.328;2023-04-01T10:17:58;9.63;;;9.03;;
6197;SDS011;3132;42.622;23.328;2023-04-01T10:23:51;9.57;;;8.70;;
6197;SDS011;3132;42.622;23.328;2023-04-01T10:32:16;9.33;;;7.50;;
6197;SDS011;3132;42.622;23.328;2023-04-01T10:46:01;9.30;;;8.60;;
6197;SDS011;3132;42.622;23.328;2023-04-01T11:11:30;8.53;;;7.73;;
6197;SDS011;3132;42.622;23.328;2023-04-01T11:20:21;9.50;;;8.53;;
6197;SDS011;3132;42.622;23.328;2023-04-01T11:31:39;9.90;;;9.03;;
6197;SDS011;3132;42.622;23.328;2023-04-01T11:34:32;9.20;;;8.50;;
6197;SDS011;3132;42.622;23.328;2023-04-01T11:43:07;9.27;;;8.53;;
6197;SDS011;3132;42.622;23.328;2023-04-01T12:06:05;12.73;;;11.70;;
6197;SDS011;3132;42.622;23.328;2023-04-01T12:11:15;12.57;;;9.20;;
6197;SDS011;3132;42.622;23.328;2023-04-01T12:13:48;10.37;;;9.77;;
6197;SDS011;3132;42.622;23.328;2023-04-01T12:19:08;10.80;;;10.20;;
6197;SDS011;3132;42.622;23.328;2023-04-01T12:21:45;10.23;;;9.53;;
6197;SDS011;3132;42.622;23.328;2023-04-01T12:24:49;9.57;;;8.90;;
6197;SDS011;3132;42.622;23.328;2023-04-01T12:27:31;9.47;;;8.77;;
6197;SDS011;3132;42.622;23.328;2023-04-01T12:38:05;10.03;;;9.37;;
6197;SDS011;3132;42.622;23.328;2023-04-01T12:40:57;9.97;;;9.13;;
6197;SDS011;3132;42.622;23.328;2023-04-01T12:52:09;10.00;;;9.10;;
6197;SDS011;3132;42.622;23.328;2023-04-01T13:00:41;9.23;;;8.60;;
6197;SDS011;3132;42.622;23.328;2023-04-01T13:11:34;9.23;;;8.73;;
6197;SDS011;3132;42.622;23.328;2023-04-01T13:16:46;7.70;;;7.50;;
6197;SDS011;3132;42.622;23.328;2023-04-01T13:19:25;8.70;;;8.33;;
6197;SDS011;3132;42.622;23.328;2023-04-01T13:24:39;8.47;;;8.17;;
6197;SDS011;3132;42.622;23.328;2023-04-01T13:27:20;8.03;;;7.73;;
6197;SDS011;3132;42.622;23.328;2023-04-01T13:33:00;8.50;;;8.10;;
6197;SDS011;3132;42.622;23.328;2023-04-01T13:51:20;8.73;;;8.33;;
6197;SDS011;3132;42.622;23.328;2023-04-01T13:54:13;9.03;;;8.63;;
6197;SDS011;3132;42.622;23.328;2023-04-01T14:02:07;8.73;;;8.33;;
6197;SDS011;3132;42.622;23.328;2023-04-01T14:05:32;11.47;;;10.53;;
6197;SDS011;3132;42.622;23.328;2023-04-01T14:07:50;12.23;;;11.23;;
6197;SDS011;3132;42.622;23.328;2023-04-01T14:10:37;8.97;;;8.57;;
6197;SDS011;3132;42.622;23.328;2023-04-01T14:19:08;8.47;;;7.97;;
6197;SDS011;3132;42.622;23.328;2023-04-01T14:24:46;7.60;;;7.30;;
6197;SDS011;3132;42.622;23.328;2023-04-01T14:40:03;9.30;;;8.80;;
6197;SDS011;3132;42.622;23.328;2023-04-01T14:50:30;8.03;;;7.70;;
6197;SDS011;3132;42.622;23.328;2023-04-01T14:53:13;8.67;;;8.37;;
6197;SDS011;3132;42.622;23.328;2023-04-01T14:55:55;8.40;;;8.00;;
6197;SDS011;3132;42.622;23.328;2023-04-01T14:58:27;9.40;;;8.93;;
6197;SDS011;3132;42.622;23.328;2023-04-01T15:04:23;10.33;;;9.57;;
6197;SDS011;3132;42.622;23.328;2023-04-01T15:15:15;10.30;;;9.77;;
6197;SDS011;3132;42.622;23.328;2023-04-01T15:23:13;10.77;;;10.07;;
6197;SDS011;3132;42.622;23.328;2023-04-01T15:31:42;9.57;;;8.93;;
6197;SDS011;3132;42.622;23.328;2023-04-01T15:34:23;9.30;;;8.80;;
6197;SDS011;3132;42.622;23.328;2023-04-01T15:54:32;10.07;;;9.37;;
6197;SDS011;3132;42.622;23.328;2023-04-01T16:00:40;9.97;;;9.47;;
6197;SDS011;3132;42.622;23.328;2023-04-01T16:08:48;11.83;;;11.03;;
6197;SDS011;3132;42.622;23.328;2023-04-01T16:16:31;9.97;;;9.53;;
6197;SDS011;3132;42.622;23.328;2023-04-01T16:19:09;10.73;;;10.13;;
6197;SDS011;3132;42.622;23.328;2023-04-01T16:29:55;10.80;;;10.20;;
6197;SDS011;3132;42.622;23.328;2023-04-01T16:51:22;11.83;;;11.00;;
6197;SDS011;3132;42.622;23.328;2023-04-01T16:54:05;10.07;;;9.50;;
6197;SDS011;3132;42.622;23.328;2023-04-01T16:56:41;8.97;;;8.67;;
6197;SDS011;3132;42.622;23.328;2023-04-01T16:59:24;9.77;;;9.37;;
6197;SDS011;3132;42.622;23.328;2023-04-01T17:04:33;9.83;;;9.37;;
6197;SDS011;3132;42.622;23.328;2023-04-01T17:10:10;8.43;;;8.03;;
6197;SDS011;3132;42.622;23.328;2023-04-01T17:15:38;9.87;;;9.57;;
6197;SDS011;3132;42.622;23.328;2023-04-01T17:55:31;9.60;;;9.13;;
6197;SDS011;3132;42.622;23.328;2023-04-01T18:01:03;7.67;;;7.37;;
6197;SDS011;3132;42.622;23.328;2023-04-01T18:23:24;9.40;;;9.00;;
6197;SDS011;3132;42.622;23.328;2023-04-01T18:26:10;10.17;;;9.70;;
6197;SDS011;3132;42.622;23.328;2023-04-01T18:31:40;9.70;;;9.20;;
6197;SDS011;3132;42.622;23.328;2023-04-01T18:37:17;9.87;;;9.47;;
6197;SDS011;3132;42.622;23.328;2023-04-01T18:39:48;10.23;;;9.53;;
6197;SDS011;3132;42.622;23.328;2023-04-01T18:45:21;9.63;;;9.23;;
6197;SDS011;3132;42.622;23.328;2023-04-01T18:51:01;9.23;;;8.83;;
6197;SDS011;3132;42.622;23.328;2023-04-01T18:54:09;8.13;;;7.87;;
6197;SDS011;3132;42.622;23.328;2023-04-01T18:56:51;8.77;;;8.37;;
6197;SDS011;3132;42.622;23.328;2023-04-01T19:05:04;8.63;;;8.33;;
6197;SDS011;3132;42.622;23.328;2023-04-01T19:21:32;9.93;;;9.33;;
6197;SDS011;3132;42.622;23.328;2023-04-01T19:25:02;10.23;;;9.83;;
6197;SDS011;3132;42.622;23.328;2023-04-01T19:27:27;9.33;;;8.93;;
6197;SDS011;3132;42.622;23.328;2023-04-01T19:33:20;10.10;;;9.37;;
6197;SDS011;3132;42.622;23.328;2023-04-01T19:40:51;9.47;;;9.07;;
6197;SDS011;3132;42.622;23.328;2023-04-01T19:51:09;11.20;;;10.80;;
6197;SDS011;3132;42.622;23.328;2023-04-01T19:56:22;9.57;;;9.17;;
6197;SDS011;3132;42.622;23.328;2023-04-01T19:58:59;9.97;;;9.57;;
6197;SDS011;3132;42.622;23.328;2023-04-01T20:01:42;9.00;;;8.60;;
6197;SDS011;3132;42.622;23.328;2023-04-01T20:04:57;10.03;;;9.63;;
6197;SDS011;3132;42.622;23.328;2023-04-01T20:15:20;10.43;;;10.03;;
6197;SDS011;3132;42.622;23.328;2023-04-01T20:17:46;9.53;;;9.03;;
6197;SDS011;3132;42.622;23.328;2023-04-01T20:26:04;11.53;;;10.97;;
6197;SDS011;3132;42.622;23.328;2023-04-01T20:44:41;8.80;;;8.40;;
6197;SDS011;3132;42.622;23.328;2023-04-01T20:59:21;9.20;;;8.80;;
6197;SDS011;3132;42.622;23.328;2023-04-01T21:16:09;8.77;;;8.47;;
6197;SDS011;3132;42.622;23.328;2023-04-01T21:26:52;9.97;;;9.53;;
6197;SDS011;3132;42.622;23.328;2023-04-01T21:35:00;10.20;;;9.80;;
6197;SDS011;3132;42.622;23.328;2023-04-01T21:37:45;10.37;;;9.80;;
6197;SDS011;3132;42.622;23.328;2023-04-01T22:10:41;9.30;;;9.00;;
6197;SDS011;3132;42.622;23.328;2023-04-01T22:13:33;9.13;;;8.83;;
6197;SDS011;3132;42.622;23.328;2023-04-01T22:18:33;8.27;;;8.03;;
6197;SDS011;3132;42.622;23.328;2023-04-01T22:21:04;9.00;;;8.60;;
6197;SDS011;3132;42.622;23.328;2023-04-01T22:23:59;7.97;;;7.73;;
6197;SDS011;3132;42.622;23.328;2023-04-01T22:26:44;8.43;;;8.13;;
6197;SDS011;3132;42.622;23.328;2023-04-01T22:32:06;8.53;;;8.23;;
6197;SDS011;3132;42.622;23.328;2023-04-01T22:37:33;8.13;;;7.83;;
6197;SDS011;3132;42.622;23.328;2023-04-01T22:40:05;7.80;;;7.60;;
6197;SDS011;3132;42.622;23.328;2023-04-01T22:42:46;9.37;;;9.07;;
6197;SDS011;3132;42.622;23.328;2023-04-01T22:48:05;10.00;;;9.57;;
6197;SDS011;3132;42.622;23.328;2023-04-01T22:53:38;9.30;;;8.90;;
6197;SDS011;3132;42.622;23.328;2023-04-01T22:56:16;9.03;;;8.63;;
6197;SDS011;3132;42.622;23.328;2023-04-01T23:01:41;9.60;;;9.10;;
6197;SDS011;3132;42.622;23.328;2023-04-01T23:04:12;8.83;;;8.53;;
6197;SDS011;3132;42.622;23.328;2023-04-01T23:06:44;8.97;;;8.57;;
6197;SDS011;3132;42.622;23.328;2023-04-01T23:11:58;7.93;;;7.70;;
6197;SDS011;3132;42.622;23.328;2023-04-01T23:15:28;9.07;;;8.77;;
6197;SDS011;3132;42.622;23.328;2023-04-01T23:20:00;9.03;;;8.67;;
6197;SDS011;3132;42.622;23.328;2023-04-01T23:22:39;10.07;;;9.57;;
6197;SDS011;3132;42.622;23.328;2023-04-01T23:27:56;9.23;;;8.93;;
6197;SDS011;3132;42.622;23.328;2023-04-01T23:30:59;8.97;;;8.67;;
6197;SDS011;3132;42.622;23.328;2023-04-01T23:35:54;10.30;;;9.70;;
6197;SDS011;3132;42.622;23.328;2023-04-01T23:38:24;8.47;;;8.17;;
6197;SDS011;3132;42.622;23.328;2023-04-01T23:40:51;9.83;;;9.37;;
6197;SDS011;3132;42.622;23.328;2023-04-01T23:43:39;9.53;;;9.13;;
6197;SDS011;3132;42.622;23.328;2023-04-01T23:46:07;8.97;;;8.67;;
6197;SDS011;3132;42.622;23.328;2023-04-01T23:48:37;8.20;;;8.00;;
6197;SDS011;3132;42.622;23.328;2023-04-01T23:51:19;8.53;;;8.20;;
6197;SDS011;3132;42.622;23.328;2023-04-01T23:53:46;8.77;;;8.47;;
6197;SDS011;3132;42.622;23.328;2023-04-01T23:56:15;9.33;;;9.00;;
6197;SDS011;3132;42.622;23.328;2023-04-01T23:58:44;9.27;;;8.87;;
